Time;durP1;ratioP1;P1;durP2;ratioP2;P2;SDS_P1;SDS_P2;PMS_P1;PMS_P2;Temp;Humidity;BMP_temperature;BMP_pressure;BME280_temperature;BME280_humidity;BME280_pressure;Samples;Min_cycle;Max_cycle;Signal;HPM_P1;HPM_P2
2022/07/30 00:01:23;;;;;;;14.20;11.77;;;23.20;61.10;;;;;;5124523;27;20472;-86
2022/07/30 00:03:50;;;;;;;27.27;14.20;;;23.20;60.90;;;;;;5122655;27;21069;-88
2022/07/30 00:06:17;;;;;;;17.57;12.77;;;23.20;60.70;;;;;;5106134;27;20819;-85
2022/07/30 00:08:46;;;;;;;14.80;11.67;;;23.10;61.10;;;;;;5139176;27;20459;-85
2022/07/30 00:11:14;;;;;;;12.67;11.37;;;23.10;60.80;;;;;;5122057;27;20447;-86
2022/07/30 00:18:14;;;;;;;12.33;10.33;;;23.10;60.60;;;;;;5138829;27;20475;-85
2022/07/30 00:20:41;;;;;;;13.23;10.30;;;23.10;61.00;;;;;;5096764;27;20505;-85
2022/07/30 00:23:08;;;;;;;9.63;8.73;;;23.10;60.80;;;;;;5124155;27;20461;-83
2022/07/30 00:25:36;;;;;;;11.13;10.00;;;23.10;60.80;;;;;;5122786;27;20490;-85
2022/07/30 00:28:04;;;;;;;12.03;10.20;;;23.10;60.20;;;;;;5140896;27;20437;-85
2022/07/30 00:30:31;;;;;;;13.67;11.47;;;23.00;60.20;;;;;;5121580;27;20448;-86
2022/07/30 00:32:58;;;;;;;12.50;10.37;;;22.90;61.30;;;;;;5142417;27;20441;-85
2022/07/30 00:35:24;;;;;;;14.20;10.90;;;22.90;61.00;;;;;;5121835;27;20461;-87
2022/07/30 00:37:51;;;;;;;14.93;12.73;;;23.00;60.80;;;;;;5125020;27;20895;-85
2022/07/30 00:40:19;;;;;;;15.00;12.87;;;22.70;62.40;;;;;;5116904;27;20445;-86
2022/07/30 00:42:48;;;;;;;16.50;12.53;;;22.70;62.50;;;;;;5124300;27;20468;-85
2022/07/30 00:45:16;;;;;;;13.03;10.40;;;22.90;62.00;;;;;;5122859;27;20479;-85
2022/07/30 00:47:44;;;;;;;13.03;11.07;;;23.00;61.40;;;;;;5125626;27;20444;-85
2022/07/30 00:50:13;;;;;;;14.27;11.30;;;23.00;61.40;;;;;;5103587;27;20467;-87
2022/07/30 00:52:41;;;;;;;13.33;11.50;;;22.80;62.20;;;;;;5106121;27;20531;-85
2022/07/30 00:55:10;;;;;;;12.67;10.90;;;22.80;62.40;;;;;;5110762;27;20481;-85
2022/07/30 00:57:37;;;;;;;16.23;11.33;;;22.70;62.30;;;;;;5028491;27;20448;-86
2022/07/30 01:00:08;;;;;;;14.47;10.97;;;22.80;62.90;;;;;;5128009;27;20456;-86
2022/07/30 01:02:35;;;;;;;15.43;12.50;;;22.70;62.50;;;;;;5125138;27;20467;-86
2022/07/30 01:05:02;;;;;;;15.43;12.00;;;22.80;62.80;;;;;;5131130;27;20477;-86
2022/07/30 01:07:29;;;;;;;14.60;11.33;;;22.80;62.60;;;;;;5106765;27;20441;-87
2022/07/30 01:09:56;;;;;;;13.93;11.70;;;22.90;62.40;;;;;;5117743;27;20441;-86
2022/07/30 01:12:25;;;;;;;11.63;10.53;;;22.90;61.60;;;;;;5126862;27;20448;-86
2022/07/30 01:14:53;;;;;;;14.93;12.10;;;22.90;61.40;;;;;;5113297;27;20580;-86
2022/07/30 01:17:21;;;;;;;13.63;11.03;;;23.00;61.80;;;;;;5125574;27;20444;-86
2022/07/30 01:19:52;;;;;;;13.47;11.77;;;22.90;61.70;;;;;;5125322;27;20453;-86
2022/07/30 01:26:28;;;;;;;14.63;10.80;;;22.70;62.00;;;;;;5121597;27;20424;-85
2022/07/30 01:29:46;;;;;;;15.93;12.13;;;22.80;62.00;;;;;;5111247;27;21119;-85
2022/07/30 01:37:35;;;;;;;12.50;11.20;;;22.90;62.00;;;;;;5124935;27;20509;-86
2022/07/30 01:40:04;;;;;;;12.77;9.73;;;22.90;61.60;;;;;;5114724;27;20459;-87
2022/07/30 01:42:33;;;;;;;12.27;9.90;;;22.90;62.00;;;;;;5115508;27;21294;-85
2022/07/30 01:49:11;;;;;;;10.77;8.83;;;22.70;61.60;;;;;;5142451;27;20470;-88
2022/07/30 01:56:37;;;;;;;11.67;9.47;;;22.70;60.30;;;;;;5122867;27;21112;-86
2022/07/30 01:59:08;;;;;;;14.10;11.50;;;22.40;61.00;;;;;;5143074;27;20441;-86
2022/07/30 02:01:36;;;;;;;12.27;9.60;;;22.30;61.40;;;;;;5108532;27;20488;-86
2022/07/30 02:04:04;;;;;;;13.13;11.20;;;22.40;61.60;;;;;;5108511;27;21062;-86
2022/07/30 02:06:41;;;;;;;12.00;10.07;;;22.40;61.50;;;;;;5107342;27;20485;-85
2022/07/30 02:09:15;;;;;;;13.17;9.93;;;22.50;61.50;;;;;;5113002;27;20445;-87
2022/07/30 02:14:41;;;;;;;12.10;9.93;;;22.70;61.30;;;;;;5118672;27;20473;-84
2022/07/30 02:17:09;;;;;;;15.60;10.93;;;22.80;61.10;;;;;;5143077;27;20533;-85
2022/07/30 02:19:40;;;;;;;14.03;10.67;;;22.70;60.70;;;;;;5111629;27;20441;-85
2022/07/30 02:22:12;;;;;;;17.33;11.00;;;22.70;60.30;;;;;;5123876;27;21012;-86
2022/07/30 02:24:42;;;;;;;14.93;11.07;;;22.70;60.20;;;;;;5111857;27;21286;-86
2022/07/30 02:27:15;;;;;;;16.83;10.63;;;22.60;61.00;;;;;;5116738;27;20876;-86
2022/07/30 02:29:45;;;;;;;18.20;12.40;;;22.60;61.00;;;;;;5030234;27;20441;-86
2022/07/30 02:32:17;;;;;;;16.10;11.40;;;22.40;61.20;;;;;;5115714;27;20626;-86
2022/07/30 02:34:48;;;;;;;17.53;12.07;;;22.40;61.40;;;;;;5125121;27;20469;-86
2022/07/30 02:37:15;;;;;;;18.87;12.77;;;22.00;62.30;;;;;;5113173;27;20501;-87
2022/07/30 02:39:43;;;;;;;15.00;11.37;;;21.90;63.40;;;;;;5123079;27;20555;-86
2022/07/30 02:42:12;;;;;;;14.67;11.20;;;22.10;63.30;;;;;;5123557;27;20455;-86
2022/07/30 02:45:30;;;;;;;12.67;10.03;;;22.30;62.70;;;;;;5105395;27;20465;-85
2022/07/30 02:48:51;;;;;;;13.87;10.20;;;22.40;61.70;;;;;;5122305;27;20441;-85
2022/07/30 02:51:21;;;;;;;13.00;10.57;;;22.50;62.10;;;;;;5106972;27;21258;-86
2022/07/30 02:53:51;;;;;;;14.37;11.43;;;22.50;62.30;;;;;;5130696;27;20525;-87
2022/07/30 02:56:21;;;;;;;14.83;10.47;;;22.60;61.70;;;;;;5104146;27;20444;-85
2022/07/30 02:58:50;;;;;;;14.90;11.60;;;22.60;61.90;;;;;;5105019;27;20437;-86
2022/07/30 03:01:19;;;;;;;15.43;11.97;;;22.60;61.60;;;;;;5095329;27;20446;-85
2022/07/30 03:03:47;;;;;;;18.17;11.50;;;22.50;61.70;;;;;;5094659;27;20469;-86
2022/07/30 03:06:16;;;;;;;14.97;11.47;;;22.50;61.70;;;;;;5106926;27;20476;-87
2022/07/30 03:08:44;;;;;;;13.80;11.00;;;22.40;62.30;;;;;;5138862;27;20445;-87
2022/07/30 03:11:13;;;;;;;14.63;11.93;;;22.40;62.30;;;;;;5118874;27;20497;-86
2022/07/30 03:13:41;;;;;;;19.80;13.53;;;22.50;62.40;;;;;;5112360;27;20451;-86
2022/07/30 03:16:37;;;;;;;20.13;14.53;;;22.50;62.00;;;;;;5120693;27;20444;-86
2022/07/30 03:19:08;;;;;;;20.23;14.97;;;22.50;62.40;;;;;;5103409;27;21228;-86
2022/07/30 03:21:38;;;;;;;20.97;15.33;;;22.40;62.10;;;;;;5103805;27;20820;-85
2022/07/30 03:24:32;;;;;;;21.20;16.07;;;22.40;62.50;;;;;;5120312;27;20484;-86
2022/07/30 03:27:02;;;;;;;21.90;15.40;;;22.40;62.70;;;;;;5113737;27;20441;-85
2022/07/30 03:29:31;;;;;;;24.43;15.30;;;22.50;62.10;;;;;;5096354;27;20452;-86
2022/07/30 03:31:59;;;;;;;21.30;16.00;;;22.50;62.80;;;;;;5104527;27;20509;-86
2022/07/30 03:34:26;;;;;;;21.07;15.83;;;22.60;62.10;;;;;;5102475;27;21337;-85
2022/07/30 03:36:55;;;;;;;20.50;14.87;;;22.60;62.10;;;;;;5140552;27;20555;-86
2022/07/30 03:39:23;;;;;;;20.10;15.33;;;22.60;62.20;;;;;;5100712;27;20987;-85
2022/07/30 03:41:52;;;;;;;21.00;14.87;;;22.60;61.90;;;;;;5104740;27;20429;-86
2022/07/30 03:44:20;;;;;;;21.97;13.37;;;22.50;62.00;;;;;;5110559;27;20475;-86
2022/07/30 03:46:50;;;;;;;22.93;14.43;;;22.40;61.90;;;;;;5121481;27;20457;-86
2022/07/30 03:52:43;;;;;;;18.90;13.33;;;22.30;61.90;;;;;;5119861;27;20426;-87
2022/07/30 03:55:15;;;;;;;19.90;12.80;;;22.20;62.60;;;;;;5087888;27;20574;-86
2022/07/30 03:58:13;;;;;;;18.47;12.60;;;22.40;62.00;;;;;;5138492;27;20531;-86
2022/07/30 04:00:41;;;;;;;20.17;14.20;;;22.30;62.10;;;;;;5126502;27;20581;-88
2022/07/30 04:03:08;;;;;;;21.00;13.23;;;22.30;62.40;;;;;;5104927;27;20449;-84
2022/07/30 04:05:48;;;;;;;19.00;13.37;;;22.40;62.30;;;;;;5105419;27;20472;-86
2022/07/30 04:08:17;;;;;;;17.60;12.53;;;22.40;61.90;;;;;;5109770;27;20460;-87
2022/07/30 04:10:44;;;;;;;19.87;14.30;;;22.10;62.40;;;;;;5128478;27;20492;-86
2022/07/30 04:13:37;;;;;;;20.47;13.10;;;22.20;62.90;;;;;;5136013;27;20780;-86
2022/07/30 04:16:13;;;;;;;19.50;13.60;;;22.20;62.60;;;;;;5081369;27;20999;-85
2022/07/30 04:18:45;;;;;;;20.60;14.63;;;22.30;62.70;;;;;;5137953;27;20527;-86
2022/07/30 04:21:17;;;;;;;21.37;14.50;;;22.20;63.10;;;;;;5138853;27;20444;-85
2022/07/30 04:23:49;;;;;;;20.67;14.50;;;22.20;63.00;;;;;;5095495;27;21096;-86
2022/07/30 04:26:17;;;;;;;17.90;13.67;;;22.10;63.10;;;;;;5135292;27;20437;-86
2022/07/30 04:28:45;;;;;;;21.00;14.43;;;22.20;63.10;;;;;;5105794;27;20460;-86
2022/07/30 04:31:12;;;;;;;19.73;14.30;;;22.30;62.70;;;;;;5117364;27;20494;-86
2022/07/30 04:33:39;;;;;;;19.90;13.57;;;22.50;62.30;;;;;;5106236;27;20445;-87
2022/07/30 04:36:27;;;;;;;24.77;15.10;;;22.50;61.40;;;;;;5126770;27;20451;-86
2022/07/30 04:38:55;;;;;;;22.73;14.23;;;22.50;61.80;;;;;;5099182;27;20448;-86
2022/07/30 04:41:22;;;;;;;20.70;13.13;;;22.40;62.20;;;;;;5139829;27;20437;-86
2022/07/30 04:44:15;;;;;;;19.10;13.33;;;22.30;62.30;;;;;;5142760;27;20563;-87
2022/07/30 04:46:53;;;;;;;19.27;12.87;;;22.40;61.90;;;;;;5098345;27;20445;-87
2022/07/30 04:49:22;;;;;;;15.63;11.30;;;22.40;61.60;;;;;;5126230;27;20445;-86
2022/07/30 04:51:50;;;;;;;16.53;11.53;;;22.50;61.40;;;;;;5116266;27;20452;-87
2022/07/30 04:54:21;;;;;;;14.80;11.93;;;22.40;61.20;;;;;;5122138;27;21555;-86
2022/07/30 04:56:49;;;;;;;15.13;11.47;;;22.40;61.80;;;;;;5126094;27;20445;-86
2022/07/30 04:59:18;;;;;;;16.47;10.60;;;22.40;61.50;;;;;;5123783;27;20984;-86
2022/07/30 05:01:48;;;;;;;14.70;11.30;;;22.20;61.70;;;;;;5104070;27;20451;-86
2022/07/30 05:04:16;;;;;;;15.00;11.50;;;22.20;62.40;;;;;;5123420;27;20480;-87
2022/07/30 05:06:45;;;;;;;17.67;12.80;;;22.00;62.70;;;;;;5122733;27;20460;-86
2022/07/30 05:09:14;;;;;;;18.30;12.20;;;22.10;62.60;;;;;;5106056;27;20460;-86
2022/07/30 05:11:49;;;;;;;18.00;13.03;;;22.00;62.60;;;;;;5098937;27;20469;-85
2022/07/30 05:14:16;;;;;;;20.40;15.07;;;22.10;62.70;;;;;;5113292;27;20464;-88
2022/07/30 05:16:43;;;;;;;19.77;14.23;;;22.20;62.40;;;;;;5142800;27;20472;-86
2022/07/30 05:19:10;;;;;;;16.33;13.60;;;22.20;61.90;;;;;;5127043;27;20990;-87
2022/07/30 05:21:37;;;;;;;21.10;16.10;;;22.10;62.60;;;;;;5109850;27;20936;-86
2022/07/30 05:24:05;;;;;;;16.47;12.50;;;22.10;62.90;;;;;;5111319;27;20472;-86
2022/07/30 05:26:58;;;;;;;20.20;13.83;;;22.00;63.10;;;;;;5104491;27;20464;-86
2022/07/30 05:29:27;;;;;;;23.53;14.70;;;22.10;63.80;;;;;;5108766;27;20529;-86
2022/07/30 05:31:59;;;;;;;21.07;14.90;;;22.10;63.60;;;;;;5106460;27;20463;-86
2022/07/30 05:34:26;;;;;;;23.27;16.70;;;21.90;64.20;;;;;;5098196;27;20489;-86
2022/07/30 05:36:54;;;;;;;37.27;18.37;;;22.00;64.30;;;;;;5104455;27;20441;-86
2022/07/30 05:39:21;;;;;;;23.93;14.60;;;21.90;64.10;;;;;;5120313;27;20441;-87
2022/07/30 05:42:28;;;;;;;23.17;15.53;;;21.80;64.20;;;;;;5120361;27;20658;-86
2022/07/30 05:44:59;;;;;;;25.97;16.20;;;21.70;64.90;;;;;;5121217;27;20529;-88
2022/07/30 05:47:26;;;;;;;21.20;14.30;;;21.90;64.70;;;;;;5095110;27;21010;-87
2022/07/30 05:49:54;;;;;;;28.17;15.87;;;22.10;64.30;;;;;;5110863;27;20453;-87
2022/07/30 05:52:21;;;;;;;21.43;14.97;;;22.10;64.00;;;;;;5123115;27;20818;-89
2022/07/30 05:54:48;;;;;;;19.57;14.70;;;22.00;63.90;;;;;;5120909;27;20461;-87
2022/07/30 05:57:42;;;;;;;23.23;13.43;;;22.10;63.60;;;;;;5122802;27;20771;-87
2022/07/30 06:04:44;;;;;;;18.57;12.37;;;22.30;63.20;;;;;;5117489;27;20456;-86
2022/07/30 06:07:12;;;;;;;16.73;11.93;;;21.90;63.70;;;;;;5102478;27;21000;-87
2022/07/30 06:09:39;;;;;;;18.93;13.07;;;21.80;64.40;;;;;;5119687;27;20929;-87
2022/07/30 06:12:08;;;;;;;26.30;14.00;;;21.70;64.80;;;;;;5094827;27;20455;-87
2022/07/30 06:14:36;;;;;;;18.50;12.23;;;21.80;65.00;;;;;;5104470;27;20475;-89
2022/07/30 06:17:05;;;;;;;18.83;11.73;;;21.90;64.60;;;;;;5105723;27;21211;-87
2022/07/30 06:19:58;;;;;;;20.47;13.00;;;21.90;64.50;;;;;;5082717;27;20523;-87
2022/07/30 06:22:25;;;;;;;21.60;13.17;;;22.00;63.90;;;;;;5104219;27;20536;-87
2022/07/30 06:29:00;;;;;;;19.67;13.43;;;21.90;65.00;;;;;;5120074;27;20420;-87
2022/07/30 06:31:31;;;;;;;22.03;12.77;;;21.90;64.70;;;;;;5107291;27;20432;-87
2022/07/30 06:33:58;;;;;;;17.33;12.87;;;21.90;64.60;;;;;;5101623;27;20552;-86
2022/07/30 06:36:29;;;;;;;20.03;12.97;;;21.90;65.10;;;;;;5123451;27;21706;-87
2022/07/30 06:39:02;;;;;;;19.17;13.97;;;21.90;65.20;;;;;;5104577;27;20444;-87
2022/07/30 06:50:35;;;;;;;19.50;14.07;;;21.90;65.60;;;;;;5118931;27;20789;-87
2022/07/30 06:57:09;;;;;;;17.87;12.90;;;22.20;65.30;;;;;;5104311;27;20499;-87
2022/07/30 06:59:36;;;;;;;17.13;12.77;;;22.20;65.20;;;;;;5123656;27;20459;-86
2022/07/30 07:02:21;;;;;;;17.03;12.67;;;22.20;65.60;;;;;;5121389;27;20443;-85
2022/07/30 07:05:04;;;;;;;19.50;13.87;;;22.20;65.50;;;;;;5121378;27;20477;-87
2022/07/30 07:07:34;;;;;;;15.80;11.07;;;22.40;65.80;;;;;;5113382;27;20460;-86
2022/07/30 07:10:01;;;;;;;15.83;12.60;;;22.40;65.50;;;;;;5125018;27;20445;-87
2022/07/30 07:12:47;;;;;;;17.27;12.80;;;22.50;66.00;;;;;;5124628;27;20449;-87
2022/07/30 07:23:14;;;;;;;14.03;10.90;;;23.00;64.50;;;;;;5067080;28;20433;-87
2022/07/30 07:25:42;;;;;;;13.73;10.63;;;23.50;64.00;;;;;;5063779;28;20475;-88
2022/07/30 07:28:10;;;;;;;12.30;10.60;;;23.90;63.20;;;;;;5047460;28;20494;-88
2022/07/30 07:30:37;;;;;;;10.60;9.60;;;24.00;62.50;;;;;;5065595;28;20448;-88
2022/07/30 07:33:06;;;;;;;12.97;10.53;;;24.00;61.50;;;;;;5067452;28;20460;-87
2022/07/30 07:35:34;;;;;;;12.63;9.03;;;23.80;61.30;;;;;;5049921;28;20538;-87
2022/07/30 07:38:01;;;;;;;10.83;9.13;;;23.60;62.80;;;;;;5066386;28;20463;-88
2022/07/30 07:40:29;;;;;;;10.97;9.80;;;23.50;63.70;;;;;;5054835;28;20806;-87
2022/07/30 07:42:57;;;;;;;9.90;8.73;;;23.40;63.30;;;;;;5046636;28;20465;-88
2022/07/30 07:49:32;;;;;;;15.10;10.00;;;23.50;62.70;;;;;;5063210;28;20420;-87
2022/07/30 07:52:01;;;;;;;10.60;9.50;;;23.70;62.60;;;;;;5066790;28;20472;-87
2022/07/30 07:54:28;;;;;;;13.17;8.07;;;23.80;62.60;;;;;;5063685;28;20562;-89
2022/07/30 07:56:56;;;;;;;9.23;8.33;;;23.90;62.00;;;;;;5058499;28;20465;-86
2022/07/30 07:59:30;;;;;;;11.83;9.00;;;24.00;61.30;;;;;;5045962;28;20462;-86
2022/07/30 08:01:57;;;;;;;9.60;8.30;;;24.20;61.20;;;;;;5064143;28;20471;-86
2022/07/30 08:04:49;;;;;;;9.10;7.97;;;24.20;61.90;;;;;;5045748;28;20503;-87
2022/07/30 08:07:35;;;;;;;8.93;7.87;;;24.30;61.50;;;;;;5056741;28;20452;-86
2022/07/30 08:10:21;;;;;;;8.90;7.43;;;24.40;60.90;;;;;;5065160;28;20864;-87
2022/07/30 08:13:09;;;;;;;10.73;8.37;;;24.50;61.30;;;;;;5045629;28;20445;-87
2022/07/30 08:15:55;;;;;;;10.23;8.40;;;24.70;61.00;;;;;;5065101;28;20552;-88
2022/07/30 08:18:40;;;;;;;8.40;7.60;;;24.80;60.40;;;;;;5065598;28;20464;-87
2022/07/30 08:21:16;;;;;;;8.87;7.60;;;24.70;59.90;;;;;;5083472;28;20475;-86
2022/07/30 08:23:43;;;;;;;7.77;7.07;;;24.50;59.20;;;;;;5075366;28;20840;-86
2022/07/30 08:26:10;;;;;;;9.30;7.50;;;24.60;59.60;;;;;;5050327;28;20456;-86
2022/07/30 08:28:39;;;;;;;7.87;7.00;;;24.70;59.00;;;;;;5047966;28;20475;-86
2022/07/30 08:31:07;;;;;;;9.60;8.70;;;24.80;59.20;;;;;;5062608;28;20437;-87
2022/07/30 08:33:34;;;;;;;8.43;7.60;;;24.90;59.10;;;;;;5037723;28;20449;-86
2022/07/30 08:40:59;;;;;;;7.17;6.43;;;25.20;57.50;;;;;;5053442;28;21293;-86
2022/07/30 08:43:28;;;;;;;9.50;6.73;;;25.50;56.90;;;;;;5059147;28;20453;-87
2022/07/30 08:46:01;;;;;;;12.33;8.20;;;25.50;56.70;;;;;;5048969;28;20467;-85
2022/07/30 08:53:36;;;;;;;10.20;7.27;;;25.90;56.20;;;;;;5059126;28;20425;-86
2022/07/30 08:56:04;;;;;;;10.47;8.20;;;25.90;55.90;;;;;;5068261;28;20502;-86
2022/07/30 08:58:33;;;;;;;13.33;9.80;;;25.80;54.00;;;;;;5072280;28;20470;-87
2022/07/30 09:01:03;;;;;;;9.30;8.13;;;25.90;54.10;;;;;;5047995;28;20437;-87
2022/07/30 09:03:31;;;;;;;7.53;6.80;;;26.20;54.10;;;;;;5056962;28;20429;-87
2022/07/30 09:06:01;;;;;;;8.27;7.47;;;26.40;53.90;;;;;;5032709;28;20544;-87
2022/07/30 09:12:37;;;;;;;11.60;7.30;;;26.70;50.60;;;;;;5058084;28;20426;-87
2022/07/30 09:19:16;;;;;;;12.80;7.10;;;27.00;51.90;;;;;;5056680;28;20456;-88
2022/07/30 09:26:16;;;;;;;7.77;7.07;;;27.00;50.00;;;;;;5058948;28;20494;-88
2022/07/30 09:28:46;;;;;;;11.50;7.13;;;27.20;48.90;;;;;;5060179;28;20465;-88
2022/07/30 09:31:51;;;;;;;8.23;5.60;;;27.30;48.90;;;;;;5052795;28;20437;-88
2022/07/30 09:34:39;;;;;;;6.90;5.80;;;27.10;47.10;;;;;;5051892;28;20602;-87
2022/07/30 09:37:18;;;;;;;6.00;5.50;;;27.20;48.80;;;;;;5057155;28;20953;-90
2022/07/30 09:40:16;;;;;;;5.80;5.00;;;27.50;46.40;;;;;;5036305;28;20986;-88
2022/07/30 09:43:08;;;;;;;5.23;4.33;;;27.40;45.70;;;;;;5038528;28;20462;-89
2022/07/30 09:45:49;;;;;;;5.53;5.03;;;27.50;43.70;;;;;;5035600;28;20541;-91
2022/07/30 09:48:21;;;;;;;5.03;4.63;;;27.60;43.40;;;;;;5035037;28;20851;-90
2022/07/30 09:50:50;;;;;;;8.50;4.90;;;27.50;41.80;;;;;;5023927;28;20445;-91
2022/07/30 09:53:18;;;;;;;5.60;4.80;;;27.20;42.80;;;;;;5040977;28;20446;-90
2022/07/30 09:55:45;;;;;;;4.40;4.00;;;27.30;45.10;;;;;;5033745;28;20481;-89
2022/07/30 09:58:13;;;;;;;5.77;4.10;;;27.50;41.80;;;;;;5053749;28;20465;-90
2022/07/30 10:00:43;;;;;;;5.93;4.47;;;27.60;40.70;;;;;;5026968;28;20451;-88
2022/07/30 10:03:26;;;;;;;4.90;4.30;;;27.40;43.00;;;;;;5060625;28;20474;-89
2022/07/30 10:06:13;;;;;;;5.73;3.70;;;27.60;41.60;;;;;;5048661;28;20461;-91
2022/07/30 10:08:48;;;;;;;4.20;3.90;;;27.80;41.30;;;;;;5035465;28;20432;-90
2022/07/30 10:11:18;;;;;;;5.33;4.40;;;28.10;41.00;;;;;;5066145;28;20485;-90
2022/07/30 10:13:47;;;;;;;4.80;4.30;;;28.40;39.60;;;;;;5039831;28;20953;-89
2022/07/30 10:16:15;;;;;;;4.33;4.03;;;28.60;40.00;;;;;;5035099;28;20815;-91
2022/07/30 10:18:43;;;;;;;4.87;4.20;;;28.70;38.70;;;;;;5037840;28;20492;-89
2022/07/30 10:25:00;;;;;;;6.43;4.57;;;28.80;38.50;;;;;;5048603;28;20564;-90
2022/07/30 10:28:04;;;;;;;5.20;4.80;;;29.00;36.20;;;;;;5016562;28;20449;-89
2022/07/30 10:30:32;;;;;;;4.63;4.23;;;29.00;36.60;;;;;;5011221;28;20438;-89
2022/07/30 10:33:00;;;;;;;6.00;4.37;;;28.90;36.50;;;;;;5033960;28;20613;-88
2022/07/30 10:35:27;;;;;;;4.50;4.20;;;29.00;37.60;;;;;;5030732;28;20544;-89
2022/07/30 10:37:57;;;;;;;4.93;4.53;;;29.00;37.10;;;;;;5049672;28;20477;-90
2022/07/30 10:40:29;;;;;;;4.03;3.73;;;28.90;38.00;;;;;;5048328;28;20570;-89
2022/07/30 10:43:26;;;;;;;4.40;4.03;;;29.10;37.50;;;;;;5033911;28;20437;-90
2022/07/30 10:46:02;;;;;;;5.67;4.50;;;29.40;37.20;;;;;;5057785;28;20531;-88
2022/07/30 10:48:33;;;;;;;11.37;4.23;;;29.30;35.70;;;;;;5047581;28;21237;-90
2022/07/30 10:51:00;;;;;;;5.67;4.47;;;28.70;35.20;;;;;;5047795;28;20445;-90
2022/07/30 10:53:37;;;;;;;6.27;4.80;;;28.70;35.80;;;;;;5035007;28;20468;-88
2022/07/30 10:56:17;;;;;;;7.70;5.07;;;28.90;36.40;;;;;;5033234;28;20453;-90
2022/07/30 11:03:34;;;;;;;5.50;4.53;;;28.90;36.20;;;;;;5047161;28;20541;-89
2022/07/30 11:06:26;;;;;;;6.03;4.50;;;28.80;37.90;;;;;;5055160;28;20536;-90
2022/07/30 11:08:55;;;;;;;7.00;4.60;;;28.70;38.10;;;;;;5017733;28;20452;-89
2022/07/30 11:11:44;;;;;;;6.20;5.17;;;29.10;37.40;;;;;;5030751;28;21157;-89
2022/07/30 11:14:11;;;;;;;6.33;5.07;;;29.40;37.40;;;;;;5044430;28;20596;-90
2022/07/30 11:16:58;;;;;;;6.90;5.13;;;29.50;38.70;;;;;;5048925;28;20987;-89
2022/07/30 11:19:26;;;;;;;5.30;4.80;;;29.60;35.50;;;;;;5048198;28;20457;-90
2022/07/30 11:22:27;;;;;;;4.97;4.47;;;29.50;36.50;;;;;;5047319;28;20463;-90
2022/07/30 11:24:55;;;;;;;7.97;5.63;;;29.60;37.80;;;;;;5045652;28;20457;-89
2022/07/30 11:31:35;;;;;;;5.70;5.20;;;29.20;36.90;;;;;;5048455;28;20466;-88
2022/07/30 11:38:52;;;;;;;6.83;5.17;;;29.50;35.90;;;;;;5050437;28;20452;-91
2022/07/30 11:41:20;;;;;;;9.60;4.90;;;29.60;36.50;;;;;;5049177;28;20441;-90
2022/07/30 11:43:47;;;;;;;5.30;4.90;;;29.80;35.50;;;;;;5040803;28;20444;-86
2022/07/30 11:56:11;;;;;;;4.27;3.97;;;30.40;34.70;;;;;;5027763;28;20437;-87
2022/07/30 11:58:39;;;;;;;6.67;4.60;;;30.40;35.30;;;;;;5049670;28;20466;-87
2022/07/30 12:01:14;;;;;;;5.50;5.07;;;30.70;33.30;;;;;;5046535;28;20943;-86
2022/07/30 12:03:42;;;;;;;5.17;4.77;;;30.50;35.10;;;;;;5047578;28;20452;-87
2022/07/30 12:06:12;;;;;;;5.47;4.97;;;30.30;34.80;;;;;;5047587;28;20445;-88
2022/07/30 12:12:47;;;;;;;5.17;4.77;;;30.80;35.10;;;;;;5052358;28;20566;-87
2022/07/30 12:15:30;;;;;;;4.60;4.20;;;31.00;35.30;;;;;;5050384;28;20464;-86
2022/07/30 12:17:59;;;;;;;5.40;5.00;;;30.90;35.40;;;;;;5051733;28;21017;-86
2022/07/30 12:20:26;;;;;;;5.93;4.90;;;31.00;33.70;;;;;;5054705;28;20452;-86
2022/07/30 12:22:54;;;;;;;5.93;5.33;;;31.20;33.50;;;;;;5035384;28;20445;-87
2022/07/30 12:25:21;;;;;;;5.93;4.80;;;31.30;33.20;;;;;;5040691;28;20465;-86
2022/07/30 12:27:49;;;;;;;5.03;4.60;;;31.10;33.50;;;;;;5051095;28;20481;-87
2022/07/30 12:30:17;;;;;;;8.33;5.03;;;31.00;32.90;;;;;;5046482;28;20530;-86
2022/07/30 12:32:47;;;;;;;5.10;4.60;;;30.90;34.80;;;;;;5059775;28;20563;-87
2022/07/30 12:35:14;;;;;;;5.60;5.20;;;30.70;35.80;;;;;;5040759;28;20556;-87
2022/07/30 12:37:41;;;;;;;5.43;4.93;;;30.60;36.00;;;;;;5053396;28;20524;-86
2022/07/30 12:40:10;;;;;;;6.77;4.97;;;30.80;36.60;;;;;;5052172;28;20442;-86
2022/07/30 12:42:38;;;;;;;5.10;4.80;;;30.90;35.40;;;;;;5043079;28;20969;-86
2022/07/30 12:45:07;;;;;;;5.80;5.20;;;31.20;35.10;;;;;;5026382;28;20458;-86
2022/07/30 12:47:34;;;;;;;5.90;4.50;;;31.60;34.60;;;;;;5032572;28;20945;-87
2022/07/30 12:50:15;;;;;;;4.63;4.23;;;31.60;31.50;;;;;;5049421;28;20441;-86
2022/07/30 12:52:49;;;;;;;4.60;4.20;;;31.30;32.00;;;;;;5032459;28;20503;-86
2022/07/30 12:55:16;;;;;;;5.27;4.77;;;31.20;33.40;;;;;;5034453;28;20468;-87
2022/07/30 12:57:57;;;;;;;4.70;4.30;;;31.10;32.20;;;;;;5049796;28;20456;-86
2022/07/30 13:00:26;;;;;;;5.27;4.97;;;31.00;33.00;;;;;;5052883;28;20515;-85
2022/07/30 13:02:53;;;;;;;6.33;4.40;;;31.20;32.00;;;;;;5054118;28;21160;-88
2022/07/30 13:05:43;;;;;;;4.97;4.53;;;31.30;33.10;;;;;;5046644;28;20469;-86
2022/07/30 13:08:10;;;;;;;5.70;4.53;;;31.70;33.00;;;;;;5051023;28;20441;-86
2022/07/30 13:10:37;;;;;;;9.20;4.90;;;32.10;31.10;;;;;;5034718;28;20802;-86
2022/07/30 13:13:03;;;;;;;4.80;4.23;;;32.10;30.50;;;;;;5047478;28;20462;-87
2022/07/30 13:18:49;;;;;;;4.80;4.10;;;31.80;32.50;;;;;;5032235;28;20470;-86
2022/07/30 13:21:17;;;;;;;3.90;3.67;;;31.70;30.40;;;;;;5035060;28;20824;-86
2022/07/30 13:23:45;;;;;;;3.73;3.30;;;31.70;29.60;;;;;;5033483;28;20571;-85
2022/07/30 13:26:12;;;;;;;3.87;3.47;;;31.90;30.00;;;;;;5048578;28;20966;-88
2022/07/30 13:28:39;;;;;;;5.40;3.50;;;31.90;30.00;;;;;;5050086;28;20449;-86
2022/07/30 13:31:06;;;;;;;3.50;3.20;;;32.20;28.90;;;;;;5032101;28;20452;-86
2022/07/30 13:33:34;;;;;;;3.93;3.53;;;32.10;28.50;;;;;;5048765;28;20532;-85
2022/07/30 13:36:01;;;;;;;4.70;3.80;;;32.10;28.70;;;;;;5023453;28;20509;-86
2022/07/30 13:38:30;;;;;;;3.70;3.40;;;32.00;29.20;;;;;;5038897;28;20488;-86
2022/07/30 13:40:57;;;;;;;3.97;3.67;;;32.20;29.20;;;;;;5046918;28;20468;-86
2022/07/30 13:43:24;;;;;;;3.83;3.53;;;32.20;28.70;;;;;;5049772;28;20453;-87
2022/07/30 13:45:52;;;;;;;5.57;4.30;;;32.30;28.90;;;;;;5032804;28;20468;-87
2022/07/30 13:48:19;;;;;;;3.67;3.43;;;32.30;28.90;;;;;;5049355;28;20846;-87
2022/07/30 13:50:46;;;;;;;7.60;4.33;;;32.40;28.80;;;;;;5049293;28;20453;-88
2022/07/30 13:53:13;;;;;;;5.27;3.60;;;32.50;28.70;;;;;;5049886;28;20448;-86
2022/07/30 13:55:42;;;;;;;4.03;3.50;;;32.70;27.80;;;;;;5044659;28;20977;-86
2022/07/30 13:58:09;;;;;;;5.30;3.20;;;32.60;26.70;;;;;;5045820;28;20456;-86
2022/07/30 14:00:37;;;;;;;3.37;3.17;;;32.50;27.30;;;;;;5034449;28;20449;-87
2022/07/30 14:03:06;;;;;;;3.70;3.40;;;32.20;27.90;;;;;;5027008;28;20454;-87
2022/07/30 14:05:34;;;;;;;4.00;3.70;;;32.40;28.30;;;;;;5043873;28;20867;-87
2022/07/30 14:08:02;;;;;;;3.73;3.43;;;32.60;28.60;;;;;;5049476;28;20450;-87
2022/07/30 14:10:29;;;;;;;3.33;3.13;;;32.70;27.70;;;;;;5047908;28;20445;-86
2022/07/30 14:12:58;;;;;;;4.03;3.63;;;32.80;27.70;;;;;;5033709;28;20984;-86
2022/07/30 14:15:29;;;;;;;11.40;3.50;;;32.70;28.20;;;;;;5046267;28;20500;-87
2022/07/30 14:17:56;;;;;;;3.13;2.93;;;32.40;26.40;;;;;;5049184;28;20448;-86
2022/07/30 14:20:24;;;;;;;3.27;2.97;;;31.70;27.00;;;;;;5050104;28;20477;-86
2022/07/30 14:22:51;;;;;;;4.20;2.90;;;31.60;27.50;;;;;;5033409;28;20449;-87
2022/07/30 14:25:18;;;;;;;3.50;3.00;;;31.70;27.80;;;;;;5044851;28;20473;-86
2022/07/30 14:27:46;;;;;;;3.03;2.83;;;31.50;27.80;;;;;;5048213;28;20515;-87
2022/07/30 14:30:14;;;;;;;3.33;3.03;;;31.50;28.20;;;;;;5026825;28;20446;-87
2022/07/30 14:46:41;;;;;;;3.63;3.27;;;32.70;27.50;;;;;;5055479;28;20437;-86
2022/07/30 14:49:08;;;;;;;2.90;2.70;;;32.10;27.60;;;;;;5035726;28;20450;-87
2022/07/30 14:51:35;;;;;;;5.50;3.63;;;32.10;28.30;;;;;;5054091;28;20459;-85
2022/07/30 14:54:03;;;;;;;3.00;2.80;;;32.10;27.90;;;;;;5033181;28;20469;-84
2022/07/30 14:56:30;;;;;;;5.00;3.60;;;32.10;28.20;;;;;;5050962;28;20571;-86
2022/07/30 14:58:57;;;;;;;3.77;2.93;;;32.20;27.80;;;;;;5040216;28;20845;-87
2022/07/30 15:01:24;;;;;;;3.60;3.30;;;32.20;28.10;;;;;;5048144;28;21133;-85
2022/07/30 15:03:52;;;;;;;3.20;3.00;;;32.30;28.20;;;;;;5050472;28;21147;-88
2022/07/30 15:06:19;;;;;;;4.20;2.90;;;32.30;26.30;;;;;;5048163;28;20468;-86
2022/07/30 15:08:47;;;;;;;3.60;3.30;;;31.90;27.10;;;;;;5049100;28;21272;-87
2022/07/30 15:11:14;;;;;;;2.93;2.83;;;31.90;27.30;;;;;;5046323;28;20545;-88
2022/07/30 15:13:41;;;;;;;2.90;2.70;;;31.80;27.30;;;;;;5050865;28;20460;-86